Flight Track Log - Related Links

Times and Time Zones

All times are in EDT time to prevent confusion due to time zone crossing. See the AWI3933 flight status page for this flight to view local times or setup timezone preferences in your user account.

Time Position Orientation Groundspeed Altitude Reporting Facility
EDT Latitude Longitude Course Direction KTS MPH feet Rate Location/Type
Wed 08:09:31 AM 42.7294 -73.8044 180° South 172 198 1,200  Level Boston Center
Wed 08:10:02 AM 42.7042 -73.8133 194° South 181 208 2,400 2,571 Climbing Boston Center
Wed 08:10:27 AM 42.7022 -73.8442 265° West 200 230 3,600 3,349 Climbing Boston Center
Wed 08:11:28 AM 42.7425 -73.9086 310° West 220 253 7,200 3,124 Climbing Boston Center
Wed 08:12:00 AM 42.5685 -73.9625 171° South  Level Estimated
Wed 08:12:28 AM 42.7842 -73.9697 313° West 219 252 9,900  Level Boston Center
Wed 08:13:00 AM 42.5171 -73.8941 136° Southeast  Level FlightAware
Wed 08:13:29 AM 42.8242 -74.0361 309° West 226 260 11,900  Level Boston Center
Wed 08:14:00 AM 42.4575 -73.9488 180° South  Level Estimated
Wed 08:14:30 AM 42.8458 -74.1189 290° West 225 259 14,300  Level Boston Center
Wed 08:15:31 AM 42.7956 -74.1656 214° Southwest 222 255 16,100 1,082 Climbing Boston Center
Wed 08:16:32 AM 42.7356 -74.2106 209° Southwest 245 282 16,500 492 Climbing Boston Center
Wed 08:17:33 AM 42.6650 -74.2650 210° Southwest 289 333 17,100 590 Climbing Boston Center
Wed 08:18:34 AM 42.5789 -74.2872 191° South 322 371 17,700 639 Climbing Boston Center
Wed 08:19:35 AM 42.4975 -74.2194 148° Southeast 344 396 18,400 738 Climbing Boston Center
Wed 08:20:36 AM 42.4192 -74.1522 148° Southeast 348 400 19,200 984 Climbing Boston Center
Wed 08:21:37 AM 42.3325 -74.0778 148° Southeast 359 413 20,400 984 Climbing Boston Center
Wed 08:22:38 AM 42.2492 -74.0056 147° Southeast 362 417 21,200 738 Climbing Boston Center
Wed 08:23:39 AM 42.1619 -73.9325 148° Southeast 367 422 21,900 738 Climbing Boston Center
Wed 08:24:40 AM 42.0731 -73.8567 148° Southeast 374 430 22,700 738 Climbing Boston Center
Wed 08:25:41 AM 41.9833 -73.7794 147° Southeast 381 438 23,400 344 Climbing Boston Center
Wed 08:26:42 AM 41.8836 -73.7394 163° South 386 444 23,400 198 Level Boston Center
Wed 08:27:42 AM 41.7908 -73.7956 204° Southwest 371 427 23,800 496 Climbing Boston Center
Wed 08:28:43 AM 41.6781 -73.8636 204° Southwest 371 427 24,400 541 Climbing Boston Center
Wed 08:29:44 AM 41.5836 -73.9231 205° Southwest 371 427 24,900 492 Climbing Boston Center
Wed 08:30:45 AM 41.4872 -73.9792 204° Southwest 373 429 25,400 492 Climbing Boston Center
Wed 08:31:46 AM 41.3928 -74.0381 205° Southwest 376 433 25,900 295 Climbing Boston Center
Wed 08:32:47 AM 41.3022 -74.0908 204° Southwest 377 434 26,000 49 Climbing Boston Center
Wed 08:33:48 AM 41.1867 -74.1608 205° Southwest 391 450 26,000  Level Boston Center
Wed 08:34:49 AM 41.0850 -74.2242 205° Southwest 401 461 26,000  Level Boston Center
Wed 08:35:50 AM 40.9806 -74.2839 203° Southwest 408 470 26,000  Level Boston Center
Wed 08:36:51 AM 40.8789 -74.3461 205° Southwest 406 467 26,000  Level Boston Center
Wed 08:37:51 AM 40.7800 -74.4128 207° Southwest 402 463 26,000  Level Boston Center
Wed 08:38:52 AM 40.7039 -74.5150 226° Southwest 391 450 26,000  Level Boston Center
Wed 08:39:53 AM 40.6136 -74.5978 215° Southwest 398 458 26,000  Level Boston Center
Wed 08:40:54 AM 40.5267 -74.6778 215° Southwest 383 441 26,000 -639 Level Boston Center
Wed 08:41:55 AM 40.4436 -74.7533 215° Southwest 367 422 24,700 -1,377 Descending Boston Center
Wed 08:42:56 AM 40.3764 -74.8508 228° Southwest 359 413 23,200 -1,475 Descending Boston Center
Wed 08:43:57 AM 40.3217 -74.9664 238° Southwest 372 428 21,700 -1,381 Descending Boston Center
Wed 08:45:15 AM 40.2497 -75.1275 240° Southwest 377 434 20,000 -739 Descending New Center
Wed 08:46:15 AM 40.2022 -75.2278 238° Southwest 357 411 20,000  Level New Center
Wed 08:47:15 AM 40.1567 -75.3281 239° Southwest 340 391 20,000  Level New Center
Wed 08:48:15 AM 40.1011 -75.4222 232° Southwest 335 386 20,000  Level New Center
Wed 08:49:15 AM 40.0392 -75.5103 227° Southwest 335 386 20,000 -50 Level New Center
Wed 08:50:15 AM 39.9772 -75.5956 227° Southwest 335 386 19,900 -50 Descending New Center
Wed 08:51:15 AM 39.9222 -75.6700 226° Southwest 315 362 19,900 50 Level New Center
Wed 08:52:15 AM 39.8753 -75.7400 229° Southwest 285 328 20,000 50 Climbing New Center
Wed 08:53:15 AM 39.8450 -75.8161 243° Southwest 262 302 20,000  Level New Center
Wed 08:54:15 AM 39.8147 -75.8925 243° Southwest 246 283 20,000  Level New Center
Wed 08:55:15 AM 39.7822 -75.9683 241° Southwest 241 277 20,000  Level New Center
Wed 08:56:15 AM 39.7536 -76.0472 245° Southwest 241 277 20,000  Level New Center
Wed 08:57:15 AM 39.7211 -76.1203 240° Southwest 236 272 20,000 -350 Level New Center
Wed 08:58:15 AM 39.6906 -76.1964 242° Southwest 236 272 19,300 -1,100 Descending New Center
Wed 08:59:15 AM 39.6533 -76.2797 240° Southwest 241 277 17,800 -1,381 Descending New Center
Wed 09:00:34 AM 39.6000 -76.3833 236° Southwest 250 288 16,100 -1,338 Descending Potomac TRACON
Wed 09:01:34 AM 39.5500 -76.4333 218° Southwest 258 297 14,700 -1,388 Descending Potomac TRACON
Wed 09:02:35 AM 39.4833 -76.4667 201° Southwest 286 329 13,300 -1,461 Descending Potomac TRACON
Wed 09:03:29 AM 39.4167 -76.5167 210° Southwest 273 314 11,900 -1,670 Descending Potomac TRACON
Wed 09:04:30 AM 39.3500 -76.5500 201° Southwest 260 299 10,100 -991 Descending Potomac TRACON
Wed 09:05:24 AM 39.2833 -76.5833 201° Southwest 245 282 10,000  Descending Potomac TRACON
Wed 09:06:25 AM 39.2333 -76.6333 218° Southwest 236 272 10,100 50 Climbing Potomac TRACON
Wed 09:07:25 AM 39.1667 -76.6667 201° Southwest 245 282 10,100  Level Potomac TRACON
Wed 09:08:25 AM 39.1167 -76.7167 218° Southwest 189 217 10,100 -53 Level Potomac TRACON
Wed 09:09:19 AM 39.0833 -76.7667 229° Southwest 196 226 10,000 -53 Descending Potomac TRACON
Wed 09:10:19 AM 39.0500 -76.8167 229° Southwest 202 232 10,000 -100 Level Potomac TRACON
Wed 09:11:19 AM 39.0000 -76.8667 218° Southwest 207 238 9,800 -800 Descending Potomac TRACON
Wed 09:12:19 AM 38.9500 -76.9167 218° Southwest 212 244 8,400 -942 Descending Potomac TRACON
Wed 09:13:20 AM 38.9000 -76.9333 195° South 174 200 7,900 -730 Descending Potomac TRACON
Wed 09:14:14 AM 38.8667 -76.9500 201° Southwest 148 170 7,000 -1,000 Descending Potomac TRACON
Wed 09:15:14 AM 38.8333 -76.9500 180° South 161 185 6,000 -500 Descending Potomac TRACON
Wed 09:16:14 AM 38.7833 -76.9500 180° South 158 182 6,000  Level Potomac TRACON
Wed 09:17:14 AM 38.7500 -76.9333 159° South 140 161 6,000  Level Potomac TRACON
Wed 09:18:08 AM 38.7167 -76.9333 180° South 148 170 6,000 -632 Level Potomac TRACON
Wed 09:19:08 AM 38.6667 -76.9333 180° South 155 178 4,800 -1,300 Descending Potomac TRACON
Wed 09:20:08 AM 38.6333 -76.9333 180° South 151 174 3,400 -1,211 Descending Potomac TRACON
Wed 09:21:02 AM 38.6167 -76.9667 237° Southwest 178 205 2,500 -474 Descending Potomac TRACON
Wed 09:22:02 AM 38.6500 -77.0167 310° West 207 238 2,500  Level Potomac TRACON
Wed 09:23:02 AM 38.7167 -77.0167 360° North 208 239 2,500 -500 Level Potomac TRACON
Wed 09:24:02 AM 38.7667 -77.0333 345° North 205 236 1,500 -1,000 Descending Potomac TRACON
Wed 09:24:56 AM 38.8167 -77.0333 360° North 170 196 600 -1,000 Descending Potomac TRACON

Login

Don't have an account? Register now (free) for customized features, flight alerts, and more!